RLT weather

Arlit Airport
Arlit, Agadez Region, Niger

Public forecast

Using degrees Celsius for public forecast. Weather courtesy of forecast.io.

METAR (pilot weather report)

Report is more than 6 hours old.

Closest report is In Guezzam Airport, 102.8 nm (190.4 km) WNW. Retrieved 2016/12/05 10:00 UTC (2 years ago):

DATG 051000Z 13006KT CAVOK 28/04 Q1021

TAF (pilot weather forecast)

Closest forecast is Mano Dayak International Airport, 115.4 nm (213.7 km) SSE. Retrieved 2019/02/16 18:22 UTC (1 hour ago):

TAF DRZA 161700Z 1618/1718 08015KT 8000 NSC BECMG 1708/1710 12025KT 2500 BLDU BECMG 1716/1718 4500